sensor_id;sensor_type;location;lat;lon;timestamp;P1;durP1;ratioP1;P2;durP2;ratioP2
14251;SDS011;7210;51.502;10.722;2023-05-07T00:00:20;18.27;;;16.57;;
14251;SDS011;7210;51.502;10.722;2023-05-07T00:02:48;17.63;;;15.83;;
14251;SDS011;7210;51.502;10.722;2023-05-07T00:05:15;18.73;;;16.83;;
14251;SDS011;7210;51.502;10.722;2023-05-07T00:07:43;19.03;;;17.03;;
14251;SDS011;7210;51.502;10.722;2023-05-07T00:10:10;17.70;;;16.00;;
14251;SDS011;7210;51.502;10.722;2023-05-07T00:12:40;19.47;;;17.63;;
14251;SDS011;7210;51.502;10.722;2023-05-07T00:15:09;19.27;;;17.20;;
14251;SDS011;7210;51.502;10.722;2023-05-07T00:17:46;19.47;;;17.47;;
14251;SDS011;7210;51.502;10.722;2023-05-07T00:20:24;19.77;;;17.77;;
14251;SDS011;7210;51.502;10.722;2023-05-07T00:22:52;19.30;;;17.47;;
14251;SDS011;7210;51.502;10.722;2023-05-07T00:25:19;19.10;;;17.20;;
14251;SDS011;7210;51.502;10.722;2023-05-07T00:27:48;18.77;;;16.87;;
14251;SDS011;7210;51.502;10.722;2023-05-07T00:30:15;19.83;;;17.57;;
14251;SDS011;7210;51.502;10.722;2023-05-07T00:32:43;19.17;;;17.37;;
14251;SDS011;7210;51.502;10.722;2023-05-07T00:35:11;18.97;;;16.97;;
14251;SDS011;7210;51.502;10.722;2023-05-07T00:37:40;18.67;;;16.80;;
14251;SDS011;7210;51.502;10.722;2023-05-07T00:40:13;19.03;;;17.17;;
14251;SDS011;7210;51.502;10.722;2023-05-07T00:42:40;18.83;;;17.03;;
14251;SDS011;7210;51.502;10.722;2023-05-07T00:45:13;17.63;;;15.83;;
14251;SDS011;7210;51.502;10.722;2023-05-07T00:47:45;18.20;;;16.30;;
14251;SDS011;7210;51.502;10.722;2023-05-07T00:50:12;17.03;;;15.33;;
14251;SDS011;7210;51.502;10.722;2023-05-07T00:52:40;18.33;;;16.50;;
14251;SDS011;7210;51.502;10.722;2023-05-07T00:55:09;17.20;;;15.47;;
14251;SDS011;7210;51.502;10.722;2023-05-07T00:57:45;17.37;;;15.57;;
14251;SDS011;7210;51.502;10.722;2023-05-07T01:00:17;17.07;;;15.27;;
14251;SDS011;7210;51.502;10.722;2023-05-07T01:02:53;18.43;;;16.50;;
14251;SDS011;7210;51.502;10.722;2023-05-07T01:05:26;17.10;;;15.40;;
14251;SDS011;7210;51.502;10.722;2023-05-07T01:07:55;17.50;;;15.80;;
14251;SDS011;7210;51.502;10.722;2023-05-07T01:10:24;18.03;;;16.13;;
14251;SDS011;7210;51.502;10.722;2023-05-07T01:12:52;18.97;;;16.97;;
14251;SDS011;7210;51.502;10.722;2023-05-07T01:15:22;17.63;;;15.90;;
14251;SDS011;7210;51.502;10.722;2023-05-07T01:17:50;18.20;;;16.30;;
14251;SDS011;7210;51.502;10.722;2023-05-07T01:20:23;17.20;;;15.50;;
14251;SDS011;7210;51.502;10.722;2023-05-07T01:23:00;17.90;;;16.00;;
14251;SDS011;7210;51.502;10.722;2023-05-07T01:25:30;18.20;;;16.10;;
14251;SDS011;7210;51.502;10.722;2023-05-07T01:28:04;17.50;;;15.80;;
14251;SDS011;7210;51.502;10.722;2023-05-07T01:30:40;17.97;;;16.17;;
14251;SDS011;7210;51.502;10.722;2023-05-07T01:33:18;17.67;;;15.53;;
14251;SDS011;7210;51.502;10.722;2023-05-07T01:35:48;18.47;;;16.67;;
14251;SDS011;7210;51.502;10.722;2023-05-07T01:38:20;17.57;;;15.77;;
14251;SDS011;7210;51.502;10.722;2023-05-07T01:40:50;20.20;;;16.57;;
14251;SDS011;7210;51.502;10.722;2023-05-07T01:43:18;18.03;;;16.23;;
14251;SDS011;7210;51.502;10.722;2023-05-07T01:45:46;17.37;;;15.57;;
14251;SDS011;7210;51.502;10.722;2023-05-07T01:48:16;16.80;;;15.10;;
14251;SDS011;7210;51.502;10.722;2023-05-07T01:50:49;17.63;;;15.73;;
14251;SDS011;7210;51.502;10.722;2023-05-07T01:56:19;15.60;;;14.00;;
14251;SDS011;7210;51.502;10.722;2023-05-07T01:58:47;15.37;;;13.77;;
14251;SDS011;7210;51.502;10.722;2023-05-07T02:01:21;16.13;;;14.53;;
14251;SDS011;7210;51.502;10.722;2023-05-07T02:03:48;16.13;;;13.27;;
14251;SDS011;7210;51.502;10.722;2023-05-07T02:06:21;15.23;;;13.63;;
14251;SDS011;7210;51.502;10.722;2023-05-07T02:08:53;14.70;;;13.20;;
14251;SDS011;7210;51.502;10.722;2023-05-07T02:11:20;15.10;;;13.53;;
14251;SDS011;7210;51.502;10.722;2023-05-07T02:13:48;14.73;;;13.23;;
14251;SDS011;7210;51.502;10.722;2023-05-07T02:16:23;14.77;;;13.27;;
14251;SDS011;7210;51.502;10.722;2023-05-07T02:18:56;13.57;;;12.17;;
14251;SDS011;7210;51.502;10.722;2023-05-07T02:21:24;14.53;;;12.97;;
14251;SDS011;7210;51.502;10.722;2023-05-07T02:23:59;14.00;;;12.60;;
14251;SDS011;7210;51.502;10.722;2023-05-07T02:26:26;13.90;;;12.13;;
14251;SDS011;7210;51.502;10.722;2023-05-07T02:28:53;12.37;;;11.17;;
14251;SDS011;7210;51.502;10.722;2023-05-07T02:31:20;13.20;;;12.00;;
14251;SDS011;7210;51.502;10.722;2023-05-07T02:33:48;12.70;;;11.40;;
14251;SDS011;7210;51.502;10.722;2023-05-07T02:36:15;12.70;;;11.43;;
14251;SDS011;7210;51.502;10.722;2023-05-07T02:42:01;12.23;;;10.93;;
14251;SDS011;7210;51.502;10.722;2023-05-07T02:44:45;12.70;;;11.23;;
14251;SDS011;7210;51.502;10.722;2023-05-07T02:47:15;14.70;;;12.20;;
14251;SDS011;7210;51.502;10.722;2023-05-07T02:49:44;13.17;;;11.83;;
14251;SDS011;7210;51.502;10.722;2023-05-07T02:52:12;13.17;;;11.87;;
14251;SDS011;7210;51.502;10.722;2023-05-07T02:54:41;13.33;;;11.93;;
14251;SDS011;7210;51.502;10.722;2023-05-07T02:57:08;14.30;;;12.80;;
14251;SDS011;7210;51.502;10.722;2023-05-07T02:59:35;13.53;;;12.13;;
14251;SDS011;7210;51.502;10.722;2023-05-07T03:02:02;13.47;;;12.07;;
14251;SDS011;7210;51.502;10.722;2023-05-07T03:04:30;13.50;;;12.10;;
14251;SDS011;7210;51.502;10.722;2023-05-07T03:06:57;14.23;;;12.70;;
14251;SDS011;7210;51.502;10.722;2023-05-07T03:09:25;17.63;;;15.73;;
14251;SDS011;7210;51.502;10.722;2023-05-07T03:11:54;15.87;;;14.27;;
14251;SDS011;7210;51.502;10.722;2023-05-07T03:14:21;16.60;;;14.57;;
14251;SDS011;7210;51.502;10.722;2023-05-07T03:16:48;16.23;;;14.53;;
14251;SDS011;7210;51.502;10.722;2023-05-07T03:19:16;15.90;;;14.20;;
14251;SDS011;7210;51.502;10.722;2023-05-07T03:21:43;17.30;;;15.50;;
14251;SDS011;7210;51.502;10.722;2023-05-07T03:24:11;15.73;;;14.13;;
14251;SDS011;7210;51.502;10.722;2023-05-07T03:26:38;14.30;;;12.80;;
14251;SDS011;7210;51.502;10.722;2023-05-07T03:29:11;14.67;;;13.17;;
14251;SDS011;7210;51.502;10.722;2023-05-07T03:31:39;15.43;;;13.93;;
14251;SDS011;7210;51.502;10.722;2023-05-07T03:34:06;17.17;;;15.37;;
14251;SDS011;7210;51.502;10.722;2023-05-07T03:36:34;15.00;;;13.37;;
14251;SDS011;7210;51.502;10.722;2023-05-07T03:39:02;14.40;;;13.00;;
14251;SDS011;7210;51.502;10.722;2023-05-07T03:41:36;14.50;;;13.10;;
14251;SDS011;7210;51.502;10.722;2023-05-07T03:44:03;14.87;;;13.37;;
14251;SDS011;7210;51.502;10.722;2023-05-07T03:46:33;14.07;;;12.67;;
14251;SDS011;7210;51.502;10.722;2023-05-07T03:49:00;15.10;;;13.47;;
14251;SDS011;7210;51.502;10.722;2023-05-07T03:51:33;13.87;;;12.57;;
14251;SDS011;7210;51.502;10.722;2023-05-07T03:54:01;13.67;;;12.37;;
14251;SDS011;7210;51.502;10.722;2023-05-07T03:56:33;13.73;;;12.20;;
14251;SDS011;7210;51.502;10.722;2023-05-07T03:59:00;14.30;;;12.27;;
14251;SDS011;7210;51.502;10.722;2023-05-07T04:01:28;14.63;;;13.07;;
14251;SDS011;7210;51.502;10.722;2023-05-07T04:03:57;13.17;;;11.87;;
14251;SDS011;7210;51.502;10.722;2023-05-07T04:06:24;14.57;;;13.17;;
14251;SDS011;7210;51.502;10.722;2023-05-07T04:08:57;14.70;;;13.20;;
14251;SDS011;7210;51.502;10.722;2023-05-07T04:11:25;13.70;;;12.07;;
14251;SDS011;7210;51.502;10.722;2023-05-07T04:13:53;12.83;;;11.53;;
14251;SDS011;7210;51.502;10.722;2023-05-07T04:16:22;13.33;;;11.60;;
14251;SDS011;7210;51.502;10.722;2023-05-07T04:18:49;13.10;;;11.47;;
14251;SDS011;7210;51.502;10.722;2023-05-07T04:21:19;12.50;;;11.23;;
14251;SDS011;7210;51.502;10.722;2023-05-07T04:23:49;11.70;;;10.60;;
14251;SDS011;7210;51.502;10.722;2023-05-07T04:26:16;11.97;;;10.77;;
14251;SDS011;7210;51.502;10.722;2023-05-07T04:28:46;12.33;;;11.03;;
14251;SDS011;7210;51.502;10.722;2023-05-07T04:31:14;11.23;;;10.13;;
14251;SDS011;7210;51.502;10.722;2023-05-07T04:33:46;10.00;;;8.77;;
14251;SDS011;7210;51.502;10.722;2023-05-07T04:36:14;9.40;;;8.47;;
14251;SDS011;7210;51.502;10.722;2023-05-07T04:38:58;10.13;;;9.13;;
14251;SDS011;7210;51.502;10.722;2023-05-07T04:41:26;8.80;;;7.90;;
14251;SDS011;7210;51.502;10.722;2023-05-07T04:43:53;8.73;;;7.83;;
14251;SDS011;7210;51.502;10.722;2023-05-07T04:46:22;7.37;;;6.63;;
14251;SDS011;7210;51.502;10.722;2023-05-07T04:48:50;7.13;;;6.43;;
14251;SDS011;7210;51.502;10.722;2023-05-07T04:51:21;7.10;;;6.40;;
14251;SDS011;7210;51.502;10.722;2023-05-07T04:53:48;10.00;;;6.80;;
14251;SDS011;7210;51.502;10.722;2023-05-07T04:56:17;6.90;;;6.20;;
14251;SDS011;7210;51.502;10.722;2023-05-07T04:58:46;6.87;;;5.83;;
14251;SDS011;7210;51.502;10.722;2023-05-07T05:01:16;6.57;;;5.90;;
14251;SDS011;7210;51.502;10.722;2023-05-07T05:03:44;7.70;;;6.53;;
14251;SDS011;7210;51.502;10.722;2023-05-07T05:06:11;7.57;;;6.77;;
14251;SDS011;7210;51.502;10.722;2023-05-07T05:08:38;8.53;;;7.17;;
14251;SDS011;7210;51.502;10.722;2023-05-07T05:11:06;9.17;;;8.17;;
14251;SDS011;7210;51.502;10.722;2023-05-07T05:13:36;10.13;;;8.63;;
14251;SDS011;7210;51.502;10.722;2023-05-07T05:16:10;12.17;;;8.60;;
14251;SDS011;7210;51.502;10.722;2023-05-07T05:18:39;12.13;;;9.03;;
14251;SDS011;7210;51.502;10.722;2023-05-07T05:21:08;9.43;;;8.17;;
14251;SDS011;7210;51.502;10.722;2023-05-07T05:23:35;9.00;;;7.97;;
14251;SDS011;7210;51.502;10.722;2023-05-07T05:26:02;9.97;;;8.30;;
14251;SDS011;7210;51.502;10.722;2023-05-07T05:28:32;10.83;;;9.00;;
14251;SDS011;7210;51.502;10.722;2023-05-07T05:31:00;9.67;;;8.67;;
14251;SDS011;7210;51.502;10.722;2023-05-07T05:33:31;10.47;;;8.07;;
14251;SDS011;7210;51.502;10.722;2023-05-07T05:36:02;10.47;;;9.30;;
14251;SDS011;7210;51.502;10.722;2023-05-07T05:38:31;10.63;;;9.53;;
14251;SDS011;7210;51.502;10.722;2023-05-07T05:40:59;10.27;;;9.27;;
14251;SDS011;7210;51.502;10.722;2023-05-07T05:43:28;11.70;;;9.63;;
14251;SDS011;7210;51.502;10.722;2023-05-07T05:45:55;9.47;;;8.17;;
14251;SDS011;7210;51.502;10.722;2023-05-07T05:48:24;8.90;;;8.00;;
14251;SDS011;7210;51.502;10.722;2023-05-07T05:50:52;8.53;;;7.73;;
14251;SDS011;7210;51.502;10.722;2023-05-07T05:53:19;9.87;;;8.90;;
14251;SDS011;7210;51.502;10.722;2023-05-07T05:55:46;10.13;;;8.93;;
14251;SDS011;7210;51.502;10.722;2023-05-07T05:58:13;9.23;;;8.17;;
14251;SDS011;7210;51.502;10.722;2023-05-07T06:00:47;9.00;;;8.10;;
14251;SDS011;7210;51.502;10.722;2023-05-07T06:03:19;9.83;;;8.43;;
14251;SDS011;7210;51.502;10.722;2023-05-07T06:05:48;8.93;;;8.03;;
14251;SDS011;7210;51.502;10.722;2023-05-07T06:08:16;9.20;;;7.77;;
14251;SDS011;7210;51.502;10.722;2023-05-07T06:10:44;8.40;;;7.50;;
14251;SDS011;7210;51.502;10.722;2023-05-07T06:13:22;8.63;;;7.73;;
14251;SDS011;7210;51.502;10.722;2023-05-07T06:15:50;9.27;;;8.33;;
14251;SDS011;7210;51.502;10.722;2023-05-07T06:18:17;9.33;;;8.43;;
14251;SDS011;7210;51.502;10.722;2023-05-07T06:20:45;9.10;;;8.20;;
14251;SDS011;7210;51.502;10.722;2023-05-07T06:23:22;8.57;;;7.67;;
14251;SDS011;7210;51.502;10.722;2023-05-07T06:25:50;8.33;;;7.53;;
14251;SDS011;7210;51.502;10.722;2023-05-07T06:28:21;8.07;;;7.27;;
14251;SDS011;7210;51.502;10.722;2023-05-07T06:30:49;7.93;;;7.13;;
14251;SDS011;7210;51.502;10.722;2023-05-07T06:33:17;8.30;;;7.47;;
14251;SDS011;7210;51.502;10.722;2023-05-07T06:35:45;8.73;;;7.83;;
14251;SDS011;7210;51.502;10.722;2023-05-07T06:38:13;8.57;;;7.77;;
14251;SDS011;7210;51.502;10.722;2023-05-07T06:40:42;8.00;;;7.30;;
14251;SDS011;7210;51.502;10.722;2023-05-07T06:43:09;9.20;;;8.30;;
14251;SDS011;7210;51.502;10.722;2023-05-07T06:45:52;9.73;;;8.13;;
14251;SDS011;7210;51.502;10.722;2023-05-07T06:48:20;11.17;;;9.33;;
14251;SDS011;7210;51.502;10.722;2023-05-07T06:50:54;10.33;;;9.33;;
14251;SDS011;7210;51.502;10.722;2023-05-07T06:53:28;10.23;;;9.23;;
14251;SDS011;7210;51.502;10.722;2023-05-07T06:55:57;11.30;;;10.10;;
14251;SDS011;7210;51.502;10.722;2023-05-07T06:58:24;10.40;;;9.40;;
14251;SDS011;7210;51.502;10.722;2023-05-07T07:00:52;11.00;;;9.97;;
14251;SDS011;7210;51.502;10.722;2023-05-07T07:03:19;12.40;;;11.17;;
14251;SDS011;7210;51.502;10.722;2023-05-07T07:05:47;13.10;;;11.70;;
14251;SDS011;7210;51.502;10.722;2023-05-07T07:08:17;12.57;;;11.27;;
14251;SDS011;7210;51.502;10.722;2023-05-07T07:10:47;12.97;;;11.67;;
14251;SDS011;7210;51.502;10.722;2023-05-07T07:13:15;11.97;;;10.73;;
14251;SDS011;7210;51.502;10.722;2023-05-07T07:15:46;12.57;;;11.27;;
14251;SDS011;7210;51.502;10.722;2023-05-07T07:18:32;12.37;;;11.10;;
14251;SDS011;7210;51.502;10.722;2023-05-07T07:20:59;13.87;;;12.33;;
14251;SDS011;7210;51.502;10.722;2023-05-07T07:23:27;13.63;;;12.23;;
14251;SDS011;7210;51.502;10.722;2023-05-07T07:25:56;14.20;;;12.70;;
14251;SDS011;7210;51.502;10.722;2023-05-07T07:28:26;15.57;;;13.50;;
14251;SDS011;7210;51.502;10.722;2023-05-07T07:30:54;16.23;;;14.50;;
14251;SDS011;7210;51.502;10.722;2023-05-07T07:33:21;14.90;;;13.10;;
14251;SDS011;7210;51.502;10.722;2023-05-07T07:35:48;15.73;;;14.07;;
14251;SDS011;7210;51.502;10.722;2023-05-07T07:38:15;14.93;;;13.40;;
14251;SDS011;7210;51.502;10.722;2023-05-07T07:40:43;16.33;;;14.63;;
14251;SDS011;7210;51.502;10.722;2023-05-07T07:43:13;15.03;;;13.43;;
14251;SDS011;7210;51.502;10.722;2023-05-07T07:45:41;16.73;;;14.93;;
14251;SDS011;7210;51.502;10.722;2023-05-07T07:48:08;17.30;;;14.63;;
14251;SDS011;7210;51.502;10.722;2023-05-07T07:50:37;16.93;;;15.13;;
14251;SDS011;7210;51.502;10.722;2023-05-07T07:53:05;17.47;;;14.80;;
14251;SDS011;7210;51.502;10.722;2023-05-07T07:55:37;16.77;;;15.03;;
14251;SDS011;7210;51.502;10.722;2023-05-07T07:58:06;15.37;;;13.77;;
14251;SDS011;7210;51.502;10.722;2023-05-07T08:00:35;15.70;;;14.00;;
14251;SDS011;7210;51.502;10.722;2023-05-07T08:03:02;15.70;;;14.10;;
14251;SDS011;7210;51.502;10.722;2023-05-07T08:05:34;15.47;;;13.97;;
14251;SDS011;7210;51.502;10.722;2023-05-07T08:08:04;15.77;;;14.10;;
14251;SDS011;7210;51.502;10.722;2023-05-07T08:10:34;17.37;;;15.57;;
14251;SDS011;7210;51.502;10.722;2023-05-07T08:13:07;16.17;;;14.47;;
14251;SDS011;7210;51.502;10.722;2023-05-07T08:15:38;16.73;;;15.07;;
14251;SDS011;7210;51.502;10.722;2023-05-07T08:18:06;16.80;;;15.10;;
14251;SDS011;7210;51.502;10.722;2023-05-07T08:20:33;16.17;;;14.47;;
14251;SDS011;7210;51.502;10.722;2023-05-07T08:23:05;17.50;;;15.67;;
14251;SDS011;7210;51.502;10.722;2023-05-07T08:25:32;17.03;;;15.27;;
14251;SDS011;7210;51.502;10.722;2023-05-07T08:28:00;20.67;;;17.17;;
14251;SDS011;7210;51.502;10.722;2023-05-07T08:30:28;17.73;;;15.83;;
14251;SDS011;7210;51.502;10.722;2023-05-07T08:32:57;17.30;;;15.50;;
14251;SDS011;7210;51.502;10.722;2023-05-07T08:35:24;17.33;;;15.53;;
14251;SDS011;7210;51.502;10.722;2023-05-07T08:37:52;17.53;;;15.80;;
14251;SDS011;7210;51.502;10.722;2023-05-07T08:40:20;17.17;;;15.47;;
14251;SDS011;7210;51.502;10.722;2023-05-07T08:42:53;16.00;;;14.40;;
14251;SDS011;7210;51.502;10.722;2023-05-07T08:45:22;16.33;;;14.60;;
14251;SDS011;7210;51.502;10.722;2023-05-07T08:47:51;16.67;;;15.07;;
14251;SDS011;7210;51.502;10.722;2023-05-07T08:50:32;15.73;;;14.13;;
14251;SDS011;7210;51.502;10.722;2023-05-07T08:53:03;17.20;;;15.50;;
14251;SDS011;7210;51.502;10.722;2023-05-07T08:55:31;17.70;;;16.03;;
14251;SDS011;7210;51.502;10.722;2023-05-07T08:57:58;17.37;;;15.67;;
14251;SDS011;7210;51.502;10.722;2023-05-07T09:00:26;17.13;;;15.33;;
14251;SDS011;7210;51.502;10.722;2023-05-07T09:02:55;16.80;;;15.20;;
14251;SDS011;7210;51.502;10.722;2023-05-07T09:05:24;17.40;;;14.87;;
14251;SDS011;7210;51.502;10.722;2023-05-07T09:07:52;16.60;;;14.70;;
14251;SDS011;7210;51.502;10.722;2023-05-07T09:10:21;16.03;;;14.43;;
14251;SDS011;7210;51.502;10.722;2023-05-07T09:12:49;15.53;;;14.03;;
14251;SDS011;7210;51.502;10.722;2023-05-07T09:15:17;15.87;;;14.37;;
14251;SDS011;7210;51.502;10.722;2023-05-07T09:17:45;15.33;;;13.83;;
14251;SDS011;7210;51.502;10.722;2023-05-07T09:20:13;19.60;;;14.73;;
14251;SDS011;7210;51.502;10.722;2023-05-07T09:22:42;15.40;;;13.83;;
14251;SDS011;7210;51.502;10.722;2023-05-07T09:25:13;16.70;;;15.10;;
14251;SDS011;7210;51.502;10.722;2023-05-07T09:27:41;15.63;;;14.13;;
14251;SDS011;7210;51.502;10.722;2023-05-07T09:30:09;16.43;;;14.93;;
14251;SDS011;7210;51.502;10.722;2023-05-07T09:32:37;14.83;;;13.43;;
14251;SDS011;7210;51.502;10.722;2023-05-07T09:35:14;15.80;;;14.20;;
14251;SDS011;7210;51.502;10.722;2023-05-07T09:37:44;14.67;;;13.27;;
14251;SDS011;7210;51.502;10.722;2023-05-07T09:40:19;14.70;;;13.40;;
14251;SDS011;7210;51.502;10.722;2023-05-07T09:42:49;14.67;;;13.27;;
14251;SDS011;7210;51.502;10.722;2023-05-07T09:45:21;14.23;;;12.93;;
14251;SDS011;7210;51.502;10.722;2023-05-07T09:47:50;14.97;;;13.57;;
14251;SDS011;7210;51.502;10.722;2023-05-07T09:50:24;15.20;;;13.80;;
14251;SDS011;7210;51.502;10.722;2023-05-07T09:52:56;16.67;;;15.13;;
14251;SDS011;7210;51.502;10.722;2023-05-07T09:55:24;15.73;;;14.23;;
14251;SDS011;7210;51.502;10.722;2023-05-07T09:57:53;15.07;;;13.63;;
14251;SDS011;7210;51.502;10.722;2023-05-07T10:00:21;16.43;;;14.83;;
14251;SDS011;7210;51.502;10.722;2023-05-07T10:02:58;16.30;;;14.80;;
14251;SDS011;7210;51.502;10.722;2023-05-07T10:05:36;17.67;;;15.80;;
14251;SDS011;7210;51.502;10.722;2023-05-07T10:08:11;19.37;;;17.27;;
14251;SDS011;7210;51.502;10.722;2023-05-07T10:10:45;16.77;;;15.17;;
14251;SDS011;7210;51.502;10.722;2023-05-07T10:13:17;16.40;;;14.80;;
14251;SDS011;7210;51.502;10.722;2023-05-07T10:15:48;15.70;;;14.20;;
14251;SDS011;7210;51.502;10.722;2023-05-07T10:18:18;16.00;;;14.50;;
14251;SDS011;7210;51.502;10.722;2023-05-07T10:20:51;16.23;;;14.77;;
14251;SDS011;7210;51.502;10.722;2023-05-07T10:23:23;15.83;;;14.33;;
14251;SDS011;7210;51.502;10.722;2023-05-07T10:25:56;14.73;;;13.43;;
14251;SDS011;7210;51.502;10.722;2023-05-07T10:28:25;15.43;;;14.03;;
14251;SDS011;7210;51.502;10.722;2023-05-07T10:30:58;14.47;;;13.17;;
14251;SDS011;7210;51.502;10.722;2023-05-07T10:33:44;13.60;;;12.40;;
14251;SDS011;7210;51.502;10.722;2023-05-07T10:36:17;13.03;;;11.83;;
14251;SDS011;7210;51.502;10.722;2023-05-07T10:38:48;12.87;;;11.70;;
14251;SDS011;7210;51.502;10.722;2023-05-07T10:41:16;13.60;;;12.40;;
14251;SDS011;7210;51.502;10.722;2023-05-07T10:43:45;13.87;;;12.63;;
14251;SDS011;7210;51.502;10.722;2023-05-07T10:46:20;13.13;;;11.83;;
14251;SDS011;7210;51.502;10.722;2023-05-07T10:49:09;12.63;;;11.47;;
14251;SDS011;7210;51.502;10.722;2023-05-07T10:52:00;14.50;;;13.00;;
14251;SDS011;7210;51.502;10.722;2023-05-07T10:54:45;12.93;;;11.73;;
14251;SDS011;7210;51.502;10.722;2023-05-07T10:57:33;12.97;;;11.80;;
14251;SDS011;7210;51.502;10.722;2023-05-07T11:03:30;13.30;;;12.17;;
14251;SDS011;7210;51.502;10.722;2023-05-07T11:06:08;13.93;;;12.63;;
14251;SDS011;7210;51.502;10.722;2023-05-07T11:08:54;14.90;;;13.53;;
14251;SDS011;7210;51.502;10.722;2023-05-07T11:11:47;14.33;;;13.03;;
14251;SDS011;7210;51.502;10.722;2023-05-07T11:14:43;13.57;;;12.37;;
14251;SDS011;7210;51.502;10.722;2023-05-07T11:17:18;12.90;;;11.70;;
14251;SDS011;7210;51.502;10.722;2023-05-07T11:19:53;13.43;;;12.23;;
14251;SDS011;7210;51.502;10.722;2023-05-07T11:22:37;13.17;;;12.07;;
14251;SDS011;7210;51.502;10.722;2023-05-07T11:25:24;13.60;;;12.43;;
14251;SDS011;7210;51.502;10.722;2023-05-07T11:28:05;14.17;;;12.97;;
14251;SDS011;7210;51.502;10.722;2023-05-07T11:30:40;13.63;;;12.40;;
14251;SDS011;7210;51.502;10.722;2023-05-07T11:33:11;13.10;;;11.90;;
14251;SDS011;7210;51.502;10.722;2023-05-07T11:35:44;13.93;;;12.83;;
14251;SDS011;7210;51.502;10.722;2023-05-07T11:38:13;14.10;;;12.80;;
14251;SDS011;7210;51.502;10.722;2023-05-07T11:40:48;14.00;;;12.77;;
14251;SDS011;7210;51.502;10.722;2023-05-07T11:43:18;14.03;;;12.67;;
14251;SDS011;7210;51.502;10.722;2023-05-07T11:45:51;14.77;;;13.33;;
14251;SDS011;7210;51.502;10.722;2023-05-07T11:48:19;14.77;;;13.53;;
14251;SDS011;7210;51.502;10.722;2023-05-07T11:50:49;14.83;;;13.23;;
14251;SDS011;7210;51.502;10.722;2023-05-07T11:53:18;11.10;;;10.10;;
14251;SDS011;7210;51.502;10.722;2023-05-07T11:55:52;11.83;;;10.73;;
14251;SDS011;7210;51.502;10.722;2023-05-07T11:58:22;10.63;;;9.63;;
14251;SDS011;7210;51.502;10.722;2023-05-07T12:00:51;10.93;;;9.93;;
14251;SDS011;7210;51.502;10.722;2023-05-07T12:03:19;10.73;;;9.83;;
14251;SDS011;7210;51.502;10.722;2023-05-07T12:05:47;11.17;;;10.17;;
14251;SDS011;7210;51.502;10.722;2023-05-07T12:08:15;11.00;;;10.10;;
14251;SDS011;7210;51.502;10.722;2023-05-07T12:10:43;9.73;;;9.00;;
14251;SDS011;7210;51.502;10.722;2023-05-07T12:13:16;9.60;;;8.80;;
14251;SDS011;7210;51.502;10.722;2023-05-07T12:15:45;10.00;;;9.20;;
14251;SDS011;7210;51.502;10.722;2023-05-07T12:18:12;10.83;;;9.73;;
14251;SDS011;7210;51.502;10.722;2023-05-07T12:20:41;20.17;;;18.47;;
14251;SDS011;7210;51.502;10.722;2023-05-07T12:23:08;15.37;;;14.10;;
14251;SDS011;7210;51.502;10.722;2023-05-07T12:25:37;12.90;;;11.90;;
14251;SDS011;7210;51.502;10.722;2023-05-07T12:28:12;10.00;;;9.20;;
14251;SDS011;7210;51.502;10.722;2023-05-07T12:30:40;11.60;;;10.57;;
14251;SDS011;7210;51.502;10.722;2023-05-07T12:33:10;9.90;;;9.00;;
14251;SDS011;7210;51.502;10.722;2023-05-07T12:35:39;10.00;;;9.20;;
14251;SDS011;7210;51.502;10.722;2023-05-07T12:38:09;14.37;;;13.27;;
14251;SDS011;7210;51.502;10.722;2023-05-07T12:40:40;10.43;;;9.63;;
14251;SDS011;7210;51.502;10.722;2023-05-07T12:43:14;11.43;;;10.43;;
14251;SDS011;7210;51.502;10.722;2023-05-07T12:45:43;10.87;;;10.03;;
14251;SDS011;7210;51.502;10.722;2023-05-07T12:48:12;9.37;;;8.57;;
14251;SDS011;7210;51.502;10.722;2023-05-07T12:50:40;9.17;;;8.47;;
14251;SDS011;7210;51.502;10.722;2023-05-07T12:53:08;8.20;;;7.60;;
14251;SDS011;7210;51.502;10.722;2023-05-07T12:55:42;8.10;;;7.50;;
14251;SDS011;7210;51.502;10.722;2023-05-07T12:58:14;7.57;;;6.97;;
14251;SDS011;7210;51.502;10.722;2023-05-07T13:00:43;9.57;;;8.67;;
14251;SDS011;7210;51.502;10.722;2023-05-07T13:06:01;10.23;;;9.43;;
14251;SDS011;7210;51.502;10.722;2023-05-07T13:08:32;11.97;;;10.97;;
14251;SDS011;7210;51.502;10.722;2023-05-07T13:11:02;8.07;;;7.47;;
14251;SDS011;7210;51.502;10.722;2023-05-07T13:13:31;8.20;;;7.60;;
14251;SDS011;7210;51.502;10.722;2023-05-07T13:16:03;8.97;;;8.27;;
14251;SDS011;7210;51.502;10.722;2023-05-07T13:18:35;8.93;;;8.13;;
14251;SDS011;7210;51.502;10.722;2023-05-07T13:21:02;8.07;;;7.47;;
14251;SDS011;7210;51.502;10.722;2023-05-07T13:23:30;9.30;;;8.60;;
14251;SDS011;7210;51.502;10.722;2023-05-07T13:25:58;9.83;;;9.03;;
14251;SDS011;7210;51.502;10.722;2023-05-07T13:28:25;8.97;;;8.27;;
14251;SDS011;7210;51.502;10.722;2023-05-07T13:30:52;8.20;;;7.60;;
14251;SDS011;7210;51.502;10.722;2023-05-07T13:33:20;9.40;;;8.67;;
14251;SDS011;7210;51.502;10.722;2023-05-07T13:35:48;11.20;;;10.30;;
14251;SDS011;7210;51.502;10.722;2023-05-07T13:38:15;9.40;;;8.60;;
14251;SDS011;7210;51.502;10.722;2023-05-07T13:40:43;8.67;;;8.07;;
14251;SDS011;7210;51.502;10.722;2023-05-07T13:43:15;8.53;;;7.87;;
14251;SDS011;7210;51.502;10.722;2023-05-07T13:45:44;9.60;;;8.80;;
14251;SDS011;7210;51.502;10.722;2023-05-07T13:48:11;10.07;;;9.27;;
14251;SDS011;7210;51.502;10.722;2023-05-07T13:50:39;9.77;;;9.07;;
14251;SDS011;7210;51.502;10.722;2023-05-07T13:53:08;10.13;;;9.33;;
14251;SDS011;7210;51.502;10.722;2023-05-07T13:55:39;10.03;;;9.23;;
14251;SDS011;7210;51.502;10.722;2023-05-07T13:58:06;9.87;;;9.07;;
14251;SDS011;7210;51.502;10.722;2023-05-07T14:00:33;10.97;;;9.93;;
14251;SDS011;7210;51.502;10.722;2023-05-07T14:03:04;9.97;;;9.17;;
14251;SDS011;7210;51.502;10.722;2023-05-07T14:05:31;10.37;;;9.57;;
14251;SDS011;7210;51.502;10.722;2023-05-07T14:07:59;10.90;;;10.00;;
14251;SDS011;7210;51.502;10.722;2023-05-07T14:10:27;10.47;;;9.67;;
14251;SDS011;7210;51.502;10.722;2023-05-07T14:12:57;10.33;;;9.33;;
14251;SDS011;7210;51.502;10.722;2023-05-07T14:15:24;11.20;;;10.30;;
14251;SDS011;7210;51.502;10.722;2023-05-07T14:17:51;11.07;;;10.17;;
14251;SDS011;7210;51.502;10.722;2023-05-07T14:20:19;9.33;;;8.60;;
14251;SDS011;7210;51.502;10.722;2023-05-07T14:22:57;10.63;;;9.63;;
14251;SDS011;7210;51.502;10.722;2023-05-07T14:25:24;9.57;;;8.70;;
14251;SDS011;7210;51.502;10.722;2023-05-07T14:27:53;10.33;;;9.50;;
14251;SDS011;7210;51.502;10.722;2023-05-07T14:30:20;9.90;;;9.10;;
14251;SDS011;7210;51.502;10.722;2023-05-07T14:32:51;11.37;;;10.30;;
14251;SDS011;7210;51.502;10.722;2023-05-07T14:35:21;11.83;;;10.83;;
14251;SDS011;7210;51.502;10.722;2023-05-07T14:37:48;10.97;;;10.07;;
14251;SDS011;7210;51.502;10.722;2023-05-07T14:40:21;14.37;;;13.17;;
14251;SDS011;7210;51.502;10.722;2023-05-07T14:42:48;12.00;;;10.83;;
14251;SDS011;7210;51.502;10.722;2023-05-07T14:45:17;12.87;;;11.73;;
14251;SDS011;7210;51.502;10.722;2023-05-07T14:47:45;9.87;;;8.97;;
14251;SDS011;7210;51.502;10.722;2023-05-07T14:50:21;13.27;;;12.07;;
14251;SDS011;7210;51.502;10.722;2023-05-07T14:52:48;15.17;;;13.80;;
14251;SDS011;7210;51.502;10.722;2023-05-07T14:55:16;14.47;;;13.17;;
14251;SDS011;7210;51.502;10.722;2023-05-07T14:57:43;12.17;;;11.17;;